createdAt,value
2022-12-28T00:20:22.616Z,4.25
2022-12-28T01:18:23.573Z,3.33
2022-12-28T01:23:31.868Z,3.25
2022-12-28T02:16:15.320Z,2.88
2022-12-28T02:37:27.282Z,2.22
2022-12-28T03:36:45.840Z,2.40
2022-12-28T04:13:33.890Z,2.08
2022-12-28T04:24:02.430Z,2.13
2022-12-28T04:55:32.811Z,2.88
2022-12-28T05:42:51.247Z,3.40
2022-12-28T05:58:27.041Z,3.53
2022-12-28T06:03:29.263Z,3.75
2022-12-28T06:08:31.461Z,3.72
2022-12-28T06:29:31.517Z,5.85
2022-12-28T06:39:54.161Z,7.82
2022-12-28T06:44:57.690Z,4.95
2022-12-28T07:05:50.226Z,4.75
2022-12-28T07:10:53.821Z,5.72
2022-12-28T07:15:55.949Z,5.10
2022-12-28T07:21:02.291Z,5.45
2022-12-28T07:31:29.847Z,5.63
2022-12-28T07:36:33.690Z,5.55
2022-12-28T07:41:37.250Z,6.20
2022-12-28T07:46:39.698Z,7.22
2022-12-28T07:51:43.784Z,7.70
2022-12-28T08:02:00.366Z,8.85
2022-12-28T08:07:02.572Z,9.45
2022-12-28T08:12:05.108Z,10.85
2022-12-28T08:17:08.659Z,9.88
2022-12-28T08:27:44.822Z,10.02
2022-12-28T08:38:10.091Z,10.88
2022-12-28T08:43:12.230Z,10.52
2022-12-28T08:48:15.089Z,10.00
2022-12-28T08:53:18.688Z,10.15
2022-12-28T08:58:20.863Z,9.82
2022-12-28T09:03:23.065Z,10.68
2022-12-28T09:08:26.641Z,10.82
2022-12-28T09:13:29.177Z,11.25
2022-12-28T09:18:31.835Z,10.90
2022-12-28T09:23:35.500Z,11.10
2022-12-28T09:39:25.514Z,11.25
2022-12-28T09:44:50.903Z,10.38
2022-12-28T09:50:19.714Z,10.00
2022-12-28T09:55:23.859Z,9.50
2022-12-28T10:00:28.644Z,9.80
2022-12-28T10:05:31.407Z,11.63
2022-12-28T10:15:45.100Z,9.98
2022-12-28T10:20:51.254Z,10.20
2022-12-28T10:25:54.666Z,9.27
2022-12-28T10:31:06.923Z,9.68
2022-12-28T10:36:14.964Z,9.65
2022-12-28T10:46:36.234Z,8.27
2022-12-28T10:51:38.458Z,8.88
2022-12-28T10:56:49.997Z,8.82
2022-12-28T11:01:53.665Z,8.70
2022-12-28T11:17:51.510Z,9.40
2022-12-28T11:22:54.401Z,8.90
2022-12-28T11:27:57.000Z,9.35
2022-12-28T11:33:04.880Z,9.10
2022-12-28T11:38:08.640Z,8.65
2022-12-28T11:43:40.789Z,9.25
2022-12-28T11:48:58.882Z,9.20
2022-12-28T11:54:01.232Z,9.27
2022-12-28T11:59:07.408Z,9.13
2022-12-28T12:09:45.585Z,9.65
2022-12-28T12:14:56.741Z,10.13
2022-12-28T12:20:02.710Z,9.73
2022-12-28T12:25:10.556Z,10.02
2022-12-28T12:35:59.249Z,10.15
2022-12-28T12:41:23.156Z,9.95
2022-12-28T12:46:27.285Z,10.43
2022-12-28T12:51:34.352Z,10.27
2022-12-28T13:12:38.278Z,10.27
2022-12-28T13:17:40.452Z,10.77
2022-12-28T13:22:58.198Z,9.93
2022-12-28T13:28:02.401Z,9.65
2022-12-28T13:33:04.632Z,9.98
2022-12-28T13:38:19.856Z,11.88
2022-12-28T13:44:22.145Z,11.23
2022-12-28T13:49:40.933Z,10.73
2022-12-28T13:54:49.603Z,11.50
2022-12-28T13:59:55.065Z,12.20
2022-12-28T14:04:57.966Z,12.55
2022-12-28T14:10:02.514Z,12.13
2022-12-28T14:25:45.468Z,12.57
2022-12-28T14:47:34.402Z,12.38
2022-12-28T14:52:45.303Z,13.02
2022-12-28T14:57:58.603Z,12.38
2022-12-28T15:03:15.714Z,12.70
2022-12-28T15:08:38.303Z,13.10
2022-12-28T15:13:41.802Z,14.77
2022-12-28T15:18:45.125Z,15.75
2022-12-28T15:29:32.198Z,13.40
2022-12-28T15:50:28.520Z,13.88
2022-12-28T15:55:31.389Z,13.35
2022-12-28T16:00:33.904Z,14.30
2022-12-28T16:05:37.600Z,14.30
2022-12-28T16:10:39.768Z,14.60
2022-12-28T16:15:41.908Z,14.32
2022-12-28T16:20:45.397Z,14.00
2022-12-28T16:25:51.470Z,15.90
2022-12-28T16:30:54.247Z,15.93
2022-12-28T16:35:59.789Z,16.52
2022-12-28T16:41:02.293Z,15.80
2022-12-28T16:46:08.416Z,15.90
2022-12-28T16:51:12.840Z,16.02
2022-12-28T16:56:14.989Z,17.17
2022-12-28T17:01:17.313Z,17.13
2022-12-28T17:06:21.185Z,16.90
2022-12-28T17:11:23.541Z,18.33
2022-12-28T17:16:25.828Z,17.58
2022-12-28T17:21:29.703Z,19.20
2022-12-28T17:37:05.899Z,18.75
2022-12-28T17:42:08.316Z,20.02
2022-12-28T17:47:10.468Z,19.27
2022-12-28T17:52:20.472Z,21.20
2022-12-28T17:57:22.683Z,20.05
2022-12-28T18:02:24.988Z,23.38
2022-12-28T18:07:28.783Z,19.38
2022-12-28T18:12:30.945Z,18.02
2022-12-28T18:17:33.078Z,18.17
2022-12-28T18:22:37.020Z,14.85
2022-12-28T18:27:39.148Z,16.33
2022-12-28T18:32:41.330Z,16.20
2022-12-28T18:37:45.413Z,17.27
2022-12-28T18:42:48.824Z,15.13
2022-12-28T18:47:51.290Z,16.08
2022-12-28T18:52:56.726Z,16.63
2022-12-28T18:57:59.238Z,15.70
2022-12-28T19:03:02.049Z,17.35
2022-12-28T19:08:07.643Z,17.08
2022-12-28T19:13:09.878Z,17.90
2022-12-28T19:18:12.577Z,17.38
2022-12-28T19:23:16.275Z,16.23
2022-12-28T19:28:18.533Z,17.10
2022-12-28T19:33:20.957Z,17.20
2022-12-28T19:38:24.994Z,18.60
2022-12-28T19:43:27.114Z,15.73
2022-12-28T19:48:31.809Z,16.58
2022-12-28T19:53:35.685Z,19.90
2022-12-28T19:58:40.224Z,19.55
2022-12-28T20:03:43.894Z,23.08
2022-12-28T20:08:48.594Z,17.55
2022-12-28T20:13:53.478Z,13.40
2022-12-28T20:18:56.784Z,13.98
2022-12-28T20:24:02.150Z,14.90
2022-12-28T20:29:05.989Z,13.55
2022-12-28T20:34:09.141Z,13.23
2022-12-28T20:39:12.771Z,13.68
2022-12-28T20:44:17.110Z,15.65
2022-12-28T20:49:20.228Z,17.60
2022-12-28T20:54:24.798Z,14.32
2022-12-28T20:59:27.411Z,14.55
2022-12-28T21:04:30.366Z,13.73
2022-12-28T21:09:34.010Z,14.40
2022-12-28T21:14:36.413Z,15.10
2022-12-28T21:19:38.967Z,17.17
2022-12-28T21:24:42.789Z,15.43
2022-12-28T21:29:45.284Z,13.15
2022-12-28T21:34:47.486Z,13.63
2022-12-28T21:39:51.024Z,15.32
2022-12-28T21:44:53.368Z,16.50
2022-12-28T21:49:55.527Z,14.73
2022-12-28T21:55:19.123Z,17.25
2022-12-28T22:00:36.302Z,15.38
2022-12-28T22:05:56.068Z,18.75
2022-12-28T22:11:17.036Z,17.67
2022-12-28T22:16:19.195Z,19.48
2022-12-28T22:21:21.354Z,19.80
2022-12-28T22:26:24.923Z,18.45
2022-12-28T22:31:27.109Z,18.20
2022-12-28T22:36:29.449Z,18.60
2022-12-28T22:41:32.966Z,16.83
2022-12-28T22:46:35.234Z,17.65
2022-12-28T22:51:37.441Z,17.13
2022-12-28T22:56:40.942Z,15.52
2022-12-28T23:01:43.661Z,15.95
2022-12-28T23:06:45.979Z,18.08
2022-12-28T23:11:50.589Z,17.73
2022-12-28T23:16:52.950Z,15.82
2022-12-28T23:22:12.441Z,17.77
2022-12-28T23:27:21.761Z,18.02
2022-12-28T23:32:23.887Z,15.30
2022-12-28T23:37:26.067Z,17.42
2022-12-28T23:42:29.651Z,17.40
2022-12-28T23:47:34.359Z,18.08
2022-12-28T23:52:36.606Z,19.00
2022-12-28T23:57:40.312Z,18.58
